^^
Datos históricos de la estación: Murcia-Puente Tocinos
Diario Informe para Septiembre 25, 2021 Unidades:  Ambas    Ingés   Métrico
Diario Semanal Mensual Anual
  Máxima: Mínima: Promedio:
Temperatura: 86.7 °F /  30.4 °C 73 °F /  22.8 °C 78.3 °F /  25.7 °C
Punto de rocio: 71.8 °F /  22.1 °C 67.1 °F /  19.5 °C 70.2 °F /  21.2 °C
Humedad: 92.5% 52.4% 77%
Velocidad viento: 13mph /  20.9km/h - 4.4mph /  7.1km/h
Racha viento: 24.2mph /  38.9km/h - -
Viento- - ESE
Presión: 30 in /  1017.0 hPa 29.9 in /  1013.0 hPa -
Precipitación: 0.02 in /  0.5 mm    
 
 
Tabla de datos para Septiembre 25, 2021
Hora Temperatura Punto de rocio Presión Viento Velocidad viento Racha viento Humedad Intensidad lluvia(por hora) Nubes
00:04 76.3 °F /  24.6 °C 70.3 °F /  21.3 °C 30in /  1015.2hPa Este 1.8mph /  2.9km/h 4.7mph /  7.6km/h 82% 0in /  0.0mm
00:09 76.3 °F /  24.6 °C 70.3 °F /  21.3 °C 30in /  1015.3hPa Este 2mph /  3.2km/h 4.3mph /  6.9km/h 82% 0in /  0.0mm
00:14 76.3 °F /  24.6 °C 70.3 °F /  21.3 °C 30in /  1015.3hPa NNE 2.4mph /  3.9km/h 4.6mph /  7.4km/h 82% 0in /  0.0mm
00:19 76.3 °F /  24.6 °C 70.2 °F /  21.2 °C 30in /  1015.3hPa Este 2.4mph /  3.9km/h 4.7mph /  7.6km/h 81.3% 0in /  0.0mm
00:24 76.5 °F /  24.7 °C 70.3 °F /  21.3 °C 30in /  1015.3hPa NE 2.4mph /  3.9km/h 4.6mph /  7.4km/h 81.5% 0in /  0.0mm
00:29 76.3 °F /  24.6 °C 70.2 °F /  21.2 °C 30in /  1014.9hPa NE 2.6mph /  4.2km/h 5.2mph /  8.4km/h 81.5% 0in /  0.0mm
00:34 76.3 °F /  24.6 °C 70.3 °F /  21.3 °C 30in /  1014.9hPa Este 3.1mph /  5km/h 5.8mph /  9.3km/h 81.7% 0in /  0.0mm
00:39 76.3 °F /  24.6 °C 70 °F /  21.1 °C 30in /  1015.0hPa ESE 3mph /  4.9km/h 4.6mph /  7.4km/h 81% 0in /  0.0mm
00:44 76.3 °F /  24.6 °C 70 °F /  21.1 °C 30in /  1015.0hPa ESE 2.9mph /  4.7km/h 6.2mph /  10km/h 81% 0in /  0.0mm
00:49 76.3 °F /  24.6 °C 70 °F /  21.1 °C 30in /  1015.0hPa ENE 2.9mph /  4.7km/h 4.7mph /  7.6km/h 81% 0in /  0.0mm
00:54 76.3 °F /  24.6 °C 70 °F /  21.1 °C 30in /  1015.0hPa NE 2.9mph /  4.7km/h 6.4mph /  10.3km/h 81% 0in /  0.0mm
00:59 76.3 °F /  24.6 °C 70 °F /  21.1 °C 29.9in /  1013.9hPa NNE 3mph /  4.8km/h 6.9mph /  11.1km/h 81% 0in /  0.0mm
01:04 76.3 °F /  24.6 °C 70.2 °F /  21.2 °C 29.9in /  1013.9hPa NNO 3.1mph /  5km/h 3.6mph /  5.8km/h 81.4% 0in /  0.0mm
01:09 76.1 °F /  24.5 °C 70.2 °F /  21.2 °C 29.9in /  1013.9hPa NNO 2.7mph /  4.4km/h 3.6mph /  5.8km/h 82% 0in /  0.0mm
01:14 75.9 °F /  24.4 °C 70 °F /  21.1 °C 29.9in /  1013.7hPa NNO 2mph /  3.2km/h 4mph /  6.4km/h 82% 0in /  0.0mm
01:19 75.7 °F /  24.3 °C 70 °F /  21.1 °C 29.9in /  1013.7hPa NO 2.3mph /  3.7km/h 5.9mph /  9.5km/h 82% 0in /  0.0mm
01:24 75.7 °F /  24.3 °C 70.2 °F /  21.2 °C 30in /  1014.2hPa Oeste 2.9mph /  4.7km/h 5.8mph /  9.3km/h 82.9% 0in /  0.0mm
01:29 75.6 °F /  24.2 °C 70 °F /  21.1 °C 30in /  1014.2hPa Sur 3.2mph /  5.2km/h 7.4mph /  11.9km/h 83% 0in /  0.0mm
01:34 75.7 °F /  24.3 °C 70.2 °F /  21.2 °C 30in /  1014.2hPa SSE 4mph /  6.4km/h 8.5mph /  13.7km/h 83% 0in /  0.0mm
01:39 75.7 °F /  24.3 °C 70.3 °F /  21.3 °C 30in /  1015.4hPa SE 4.6mph /  7.4km/h 9.2mph /  14.8km/h 83% 0in /  0.0mm
01:44 75.9 °F /  24.4 °C 70.3 °F /  21.3 °C 30in /  1015.4hPa SE 5.9mph /  9.5km/h 9.2mph /  14.8km/h 83% 0in /  0.0mm
01:49 75.7 °F /  24.3 °C 70.3 °F /  21.3 °C 30in /  1015.4hPa SE 5.9mph /  9.5km/h 11.5mph /  18.5km/h 83% 0in /  0.0mm
01:54 75.6 °F /  24.2 °C 70.5 °F /  21.4 °C 30in /  1015.4hPa SSE 5.9mph /  9.5km/h 10.4mph /  16.7km/h 83.9% 0in /  0.0mm
01:59 75.6 °F /  24.2 °C 70.5 °F /  21.4 °C 30in /  1015.3hPa SE 5.9mph /  9.5km/h 8.1mph /  13km/h 84.3% 0in /  0.0mm
02:04 75.6 °F /  24.2 °C 70.7 °F /  21.5 °C 30in /  1015.3hPa ESE 5.9mph /  9.5km/h 8.5mph /  13.7km/h 84.9% 0in /  0.0mm
02:09 75.4 °F /  24.1 °C 70.5 °F /  21.4 °C 30in /  1015.3hPa ENE 5.4mph /  8.7km/h 6.9mph /  11.1km/h 85% 0in /  0.0mm
02:14 75 °F /  23.9 °C 70.3 °F /  21.3 °C 29.9in /  1014.0hPa NNE 4.3mph /  6.9km/h 8.5mph /  13.7km/h 85% 0in /  0.0mm
02:19 75 °F /  23.9 °C 70.2 °F /  21.2 °C 29.9in /  1014.0hPa NO 4.2mph /  6.8km/h 6.9mph /  11.1km/h 85.2% 0in /  0.0mm
02:24 75 °F /  23.9 °C 70.5 °F /  21.4 °C 30in /  1014.5hPa SSO 4mph /  6.4km/h 5.9mph /  9.5km/h 86% 0in /  0.0mm
02:29 75 °F /  23.9 °C 70.5 °F /  21.4 °C 30in /  1014.5hPa SSE 4mph /  6.4km/h 6.9mph /  11.1km/h 86% 0in /  0.0mm
02:34 75 °F /  23.9 °C 70.5 °F /  21.4 °C 30in /  1014.5hPa ESE 4mph /  6.4km/h 6.2mph /  10km/h 86% 0in /  0.0mm
02:39 75.2 °F /  24 °C 70.7 °F /  21.5 °C 30in /  1014.8hPa Este 3.7mph /  5.9km/h 5.8mph /  9.3km/h 86% 0in /  0.0mm
02:44 75.4 °F /  24.1 °C 70.9 °F /  21.6 °C 30in /  1014.8hPa Este 2.9mph /  4.7km/h 2.9mph /  4.7km/h 86% 0in /  0.0mm
02:49 75.4 °F /  24.1 °C 70.9 °F /  21.6 °C 30in /  1014.8hPa Este 2.4mph /  3.8km/h 4.7mph /  7.6km/h 86% 0in /  0.0mm
02:54 75.4 °F /  24.1 °C 70.9 °F /  21.6 °C 30in /  1014.8hPa NNO 1.4mph /  2.3km/h 5.2mph /  8.4km/h 86% 0in /  0.0mm
02:59 75.4 °F /  24.1 °C 70.9 °F /  21.6 °C 30in /  1014.6hPa NNO 1.8mph /  2.9km/h 6.9mph /  11.1km/h 86% 0in /  0.0mm
03:04 75.4 °F /  24.1 °C 70.9 °F /  21.6 °C 30in /  1014.6hPa NNO 2.4mph /  3.9km/h 8.5mph /  13.7km/h 86% 0in /  0.0mm
03:09 75.4 °F /  24.1 °C 70.9 °F /  21.6 °C 30in /  1014.6hPa ONO 3.3mph /  5.3km/h 10.4mph /  16.7km/h 86% 0in /  0.0mm
03:14 75.2 °F /  24 °C 70.7 °F /  21.5 °C 29.9in /  1013.5hPa Oeste 5.2mph /  8.4km/h 6.9mph /  11.1km/h 86.1% 0in /  0.0mm
03:19 75 °F /  23.9 °C 70.7 °F /  21.5 °C 29.9in /  1013.5hPa ONO 4.2mph /  6.8km/h 5.4mph /  8.7km/h 86.2% 0in /  0.0mm
03:24 75 °F /  23.9 °C 70.9 °F /  21.6 °C 30in /  1015.0hPa SO 2.4mph /  3.9km/h 6.2mph /  10km/h 86.9% 0in /  0.0mm
03:29 75 °F /  23.9 °C 70.9 °F /  21.6 °C 30in /  1015.0hPa OSO 2.8mph /  4.5km/h 5.9mph /  9.5km/h 87% 0in /  0.0mm
03:34 75 °F /  23.9 °C 70.9 °F /  21.6 °C 30in /  1015.0hPa Oeste 3.6mph /  5.8km/h 5.9mph /  9.5km/h 87% 0in /  0.0mm
03:39 75 °F /  23.9 °C 70.9 °F /  21.6 °C 30in /  1015.0hPa ONO 3.7mph /  6km/h 5.8mph /  9.3km/h 87% 0in /  0.0mm
03:44 75 °F /  23.9 °C 70.9 °F /  21.6 °C 30in /  1014.9hPa North 4mph /  6.4km/h 6.9mph /  11.1km/h 87% 0in /  0.0mm
03:49 75 °F /  23.9 °C 70.9 °F /  21.6 °C 30in /  1014.9hPa NNE 3.7mph /  6km/h 6.9mph /  11.1km/h 87% 0in /  0.0mm
03:54 74.8 °F /  23.8 °C 70.9 °F /  21.6 °C 30in /  1014.9hPa ENE 3.1mph /  5km/h 5.8mph /  9.3km/h 87.3% 0in /  0.0mm
03:59 74.8 °F /  23.8 °C 71.1 °F /  21.7 °C 29.9in /  1014.0hPa SE 3.4mph /  5.5km/h 6.9mph /  11.1km/h 88% 0.02in /  0.5mm
04:04 74.8 °F /  23.8 °C 71.1 °F /  21.7 °C 29.9in /  1014.0hPa SE 4mph /  6.4km/h 8.5mph /  13.7km/h 88% 0.02in /  0.5mm
04:09 74.7 °F /  23.7 °C 71.2 °F /  21.8 °C 30in /  1014.8hPa SE 4.4mph /  7.1km/h 9.2mph /  14.8km/h 88.6% 0.02in /  0.5mm
04:14 74.7 °F /  23.7 °C 71.2 °F /  21.8 °C 30in /  1014.8hPa SE 5.4mph /  8.7km/h 8.1mph /  13km/h 89% 0.02in /  0.5mm
04:19 74.5 °F /  23.6 °C 71.1 °F /  21.7 °C 30in /  1014.8hPa ENE 5mph /  8.1km/h 5.9mph /  9.5km/h 89% 0.02in /  0.5mm
04:24 74.5 °F /  23.6 °C 71.1 °F /  21.7 °C 30in /  1014.8hPa NNE 4.3mph /  6.9km/h 8.1mph /  13km/h 89.5% 0.02in /  0.5mm
04:29 74.3 °F /  23.5 °C 71.2 °F /  21.8 °C 29.9in /  1013.0hPa North 4.2mph /  6.8km/h 6.9mph /  11.1km/h 90% 0.02in /  0.5mm
04:34 74.1 °F /  23.4 °C 71.2 °F /  21.8 °C 29.9in /  1013.0hPa SE 4mph /  6.4km/h 4.6mph /  7.4km/h 90.5% 0.02in /  0.5mm
04:39 74.1 °F /  23.4 °C 71.2 °F /  21.8 °C 29.9in /  1013.6hPa SE 3.4mph /  5.5km/h 3.6mph /  5.8km/h 91% 0.02in /  0.5mm
04:44 74.1 °F /  23.4 °C 71.2 °F /  21.8 °C 29.9in /  1013.6hPa ESE 1.4mph /  2.3km/h 4.6mph /  7.4km/h 91% 0.02in /  0.5mm
04:49 74.1 °F /  23.4 °C 71.2 °F /  21.8 °C 29.9in /  1013.6hPa ENE 1.6mph /  2.6km/h 4mph /  6.4km/h 91% 0.02in /  0.5mm
04:54 74.1 °F /  23.4 °C 71.2 °F /  21.8 °C 29.9in /  1013.7hPa ESE 2mph /  3.2km/h 5.8mph /  9.3km/h 91% 0.02in /  0.5mm
04:59 74.1 °F /  23.4 °C 71.2 °F /  21.8 °C 29.9in /  1013.7hPa SSE 2.5mph /  4.1km/h 6.9mph /  11.1km/h 91% 0.02in /  0.5mm
05:04 74.1 °F /  23.4 °C 71.2 °F /  21.8 °C 29.9in /  1013.7hPa SE 3.6mph /  5.8km/h 4.7mph /  7.6km/h 91% 0in /  0.0mm
05:09 74.1 °F /  23.4 °C 71.2 °F /  21.8 °C 30in /  1014.8hPa SSE 3.6mph /  5.8km/h 7.4mph /  11.9km/h 91% 0in /  0.0mm
05:14 74.1 °F /  23.4 °C 71.4 °F /  21.9 °C 30in /  1014.8hPa SE 3.6mph /  5.8km/h 6.9mph /  11.1km/h 91.4% 0in /  0.0mm
05:19 74.1 °F /  23.4 °C 71.4 °F /  21.9 °C 30in /  1014.8hPa SE 3.5mph /  5.6km/h 3.6mph /  5.8km/h 91.5% 0in /  0.0mm
05:24 74.1 °F /  23.4 °C 71.2 °F /  21.8 °C 30in /  1014.8hPa North 3.1mph /  5km/h 9.2mph /  14.8km/h 91% 0in /  0.0mm
05:29 73.9 °F /  23.3 °C 71.1 °F /  21.7 °C 29.9in /  1013.3hPa NE 3.5mph /  5.6km/h 9.2mph /  14.8km/h 91% 0in /  0.0mm
05:34 73.9 °F /  23.3 °C 71.4 °F /  21.9 °C 29.9in /  1013.3hPa North 4.3mph /  6.9km/h 6.2mph /  10km/h 91.9% 0in /  0.0mm
05:39 73.9 °F /  23.3 °C 71.4 °F /  21.9 °C 29.9in /  1013.3hPa ONO 4.2mph /  6.8km/h 5.9mph /  9.5km/h 92% 0in /  0.0mm
05:44 73.8 °F /  23.2 °C 71.4 °F /  21.9 °C 29.9in /  1013.2hPa SO 4mph /  6.4km/h 5.9mph /  9.5km/h 92% 0in /  0.0mm
05:49 73.9 °F /  23.3 °C 71.4 °F /  21.9 °C 29.9in /  1013.2hPa SSE 4mph /  6.4km/h 8.1mph /  13km/h 92% 0in /  0.0mm
05:54 73.9 °F /  23.3 °C 71.4 °F /  21.9 °C 30in /  1014.9hPa Sur 4mph /  6.4km/h 6.2mph /  10km/h 92% 0in /  0.0mm
05:59 73.9 °F /  23.3 °C 71.4 °F /  21.9 °C 30in /  1014.9hPa SSO 4mph /  6.4km/h 5.8mph /  9.3km/h 92% 0in /  0.0mm
06:04 73.9 °F /  23.3 °C 71.4 °F /  21.9 °C 30in /  1014.9hPa Oeste 4mph /  6.4km/h 4.6mph /  7.4km/h 92% 0in /  0.0mm
06:09 73.9 °F /  23.3 °C 71.4 °F /  21.9 °C 30in /  1014.9hPa NO 3.7mph /  6km/h 5.9mph /  9.5km/h 92% 0in /  0.0mm
06:14 73.9 °F /  23.3 °C 71.4 °F /  21.9 °C 29.9in /  1013.3hPa SSE 3.1mph /  5km/h 4.6mph /  7.4km/h 92% 0in /  0.0mm
06:19 73.9 °F /  23.3 °C 71.4 °F /  21.9 °C 29.9in /  1013.3hPa SE 2.9mph /  4.6km/h 4.6mph /  7.4km/h 92% 0in /  0.0mm
06:24 73.9 °F /  23.3 °C 71.4 °F /  21.9 °C 30in /  1014.5hPa SE 2.4mph /  3.9km/h 6.2mph /  10km/h 92% 0in /  0.0mm
06:29 73.9 °F /  23.3 °C 71.4 °F /  21.9 °C 30in /  1014.5hPa Este 2.8mph /  4.5km/h 5.9mph /  9.5km/h 92% 0in /  0.0mm
06:34 73.8 °F /  23.2 °C 71.4 °F /  21.9 °C 30in /  1014.5hPa ESE 3.6mph /  5.8km/h 6.9mph /  11.1km/h 92% 0in /  0.0mm
06:39 73.8 °F /  23.2 °C 71.2 °F /  21.8 °C 30in /  1014.5hPa ESE 3.7mph /  6km/h 5.8mph /  9.3km/h 92% 0in /  0.0mm
06:44 73.8 °F /  23.2 °C 71.2 °F /  21.8 °C 30in /  1014.4hPa SSE 4mph /  6.4km/h 3.6mph /  5.8km/h 92.1% 0in /  0.0mm
06:49 73.8 °F /  23.2 °C 71.4 °F /  21.9 °C 30in /  1014.4hPa SE 3.4mph /  5.4km/h 3.5mph /  5.6km/h 92.5% 0in /  0.0mm
06:54 73.6 °F /  23.1 °C 71.2 °F /  21.8 °C 30in /  1014.8hPa SSE 2mph /  3.2km/h 4.6mph /  7.4km/h 92.1% 0in /  0.0mm
06:59 73.6 °F /  23.1 °C 71.1 °F /  21.7 °C 30in /  1014.8hPa Sur 1.9mph /  3.1km/h 4.6mph /  7.4km/h 92% 0in /  0.0mm
07:04 73.6 °F /  23.1 °C 71.2 °F /  21.8 °C 30in /  1014.8hPa ESE 1.8mph /  2.9km/h 4.6mph /  7.4km/h 92% 0in /  0.0mm
07:09 73.8 °F /  23.2 °C 71.2 °F /  21.8 °C 30in /  1014.8hPa North 1.9mph /  3km/h 3.6mph /  5.8km/h 92% 0in /  0.0mm
07:14 73.8 °F /  23.2 °C 71.2 °F /  21.8 °C 30in /  1014.7hPa North 2mph /  3.2km/h 2.9mph /  4.7km/h 92% 0in /  0.0mm
07:19 73.8 °F /  23.2 °C 71.2 °F /  21.8 °C 30in /  1014.7hPa North 1.8mph /  2.9km/h 3.6mph /  5.8km/h 92% 0in /  0.0mm
07:24 73.8 °F /  23.2 °C 71.2 °F /  21.8 °C 30in /  1014.9hPa NNO 1.4mph /  2.3km/h 3.5mph /  5.6km/h 92% 0in /  0.0mm
07:29 73.8 °F /  23.2 °C 71.2 °F /  21.8 °C 30in /  1014.9hPa NNO 1mph /  1.6km/h 2mph /  3.2km/h 92% 0in /  0.0mm
07:34 73.8 °F /  23.2 °C 71.2 °F /  21.8 °C 30in /  1014.9hPa Calm   5.2mph /  8.4km/h 92% 0in /  0.0mm
07:39 73.8 °F /  23.2 °C 71.2 °F /  21.8 °C 30in /  1014.9hPa NE 1mph /  1.6km/h 4.7mph /  7.6km/h 92% 0in /  0.0mm
07:44 73.6 °F /  23.1 °C 71.1 °F /  21.7 °C 30in /  1014.8hPa NE 2.9mph /  4.7km/h 4.6mph /  7.4km/h 92% 0in /  0.0mm
07:49 73.6 °F /  23.1 °C 71.1 °F /  21.7 °C 30in /  1014.8hPa NE 2.5mph /  4.1km/h 4.6mph /  7.4km/h 92% 0in /  0.0mm
07:54 73.4 °F /  23 °C 70.9 °F /  21.6 °C 30in /  1014.8hPa Este 1.8mph /  2.9km/h 3.5mph /  5.6km/h 92% 0in /  0.0mm
07:59 73.2 °F /  22.9 °C 70.9 °F /  21.6 °C 30in /  1014.8hPa Este 1.7mph /  2.7km/h 2.9mph /  4.7km/h 92% 0in /  0.0mm
08:04 73.2 °F /  22.9 °C 70.7 °F /  21.5 °C 30in /  1014.8hPa ESE 1.4mph /  2.3km/h 4.7mph /  7.6km/h 92% 0in /  0.0mm
08:09 73 °F /  22.8 °C 70.5 °F /  21.4 °C 30in /  1014.9hPa SE 1.7mph /  2.8km/h 5.8mph /  9.3km/h 92% 0in /  0.0mm
08:14 73 °F /  22.8 °C 70.5 °F /  21.4 °C 30in /  1014.9hPa ESE 2.4mph /  3.9km/h 4.6mph /  7.4km/h 92% 0in /  0.0mm
08:19 73 °F /  22.8 °C 70.7 °F /  21.5 °C 30in /  1014.9hPa ESE 2.4mph /  3.9km/h 3.6mph /  5.8km/h 92% 0in /  0.0mm
08:24 73 °F /  22.8 °C 70.7 °F /  21.5 °C 30in /  1014.9hPa ESE 2.4mph /  3.9km/h 4.6mph /  7.4km/h 92% 0in /  0.0mm
08:29 73 °F /  22.8 °C 70.5 °F /  21.4 °C 30in /  1014.9hPa ENE 2.2mph /  3.6km/h 3.6mph /  5.8km/h 92% 0in /  0.0mm
08:34 73.2 °F /  22.9 °C 70.7 °F /  21.5 °C 30in /  1014.9hPa NNO 1.8mph /  2.9km/h 3.5mph /  5.6km/h 92% 0in /  0.0mm
08:39 73.2 °F /  22.9 °C 70.9 °F /  21.6 °C 30in /  1015.1hPa NO 1.8mph /  2.9km/h 2.3mph /  3.7km/h 92% 0in /  0.0mm
08:44 73.2 °F /  22.9 °C 70.7 °F /  21.5 °C 30in /  1015.1hPa NNE 1.8mph /  2.9km/h 4.6mph /  7.4km/h 91.6% 0in /  0.0mm
08:49 73.2 °F /  22.9 °C 70.3 °F /  21.3 °C 30in /  1015.1hPa ESE 1.9mph /  3km/h 4.6mph /  7.4km/h 91% 0in /  0.0mm
08:54 73.2 °F /  22.9 °C 70.3 °F /  21.3 °C 30in /  1015.2hPa ENE 2mph /  3.2km/h 3.6mph /  5.8km/h 91% 0in /  0.0mm
08:59 73.2 °F /  22.9 °C 70.3 °F /  21.3 °C 30in /  1015.2hPa NNE 2.1mph /  3.4km/h 4.6mph /  7.4km/h 91% 0in /  0.0mm
09:04 73.2 °F /  22.9 °C 70.5 °F /  21.4 °C 30in /  1015.2hPa NNE 2.4mph /  3.9km/h 4mph /  6.4km/h 91% 0in /  0.0mm
09:09 73.4 °F /  23 °C 70.5 °F /  21.4 °C 30in /  1015.2hPa NE 2.4mph /  3.9km/h 4.6mph /  7.4km/h 91% 0in /  0.0mm
09:14 73.6 °F /  23.1 °C 70.7 °F /  21.5 °C 30in /  1015.2hPa Este 2.4mph /  3.9km/h 4.6mph /  7.4km/h 91% 0in /  0.0mm
09:19 73.6 °F /  23.1 °C 70.9 °F /  21.6 °C 30in /  1015.2hPa ENE 2.4mph /  3.9km/h 4.6mph /  7.4km/h 91% 0in /  0.0mm
09:24 73.8 °F /  23.2 °C 71.1 °F /  21.7 °C 30in /  1015.3hPa NNE 2.4mph /  3.9km/h 6.2mph /  10km/h 91% 0in /  0.0mm
09:29 73.9 °F /  23.3 °C 71.1 °F /  21.7 °C 30in /  1015.3hPa NNE 2.8mph /  4.5km/h 5.9mph /  9.5km/h 91% 0in /  0.0mm
09:34 73.9 °F /  23.3 °C 71.1 °F /  21.7 °C 30in /  1015.3hPa NE 3.6mph /  5.8km/h 5.9mph /  9.5km/h 91% 0in /  0.0mm
09:39 73.9 °F /  23.3 °C 71.1 °F /  21.7 °C 30in /  1015.3hPa NE 3.7mph /  6km/h 6.2mph /  10km/h 91.1% 0in /  0.0mm
09:44 74.1 °F /  23.4 °C 71.6 °F /  22 °C 30in /  1015.3hPa NNE 4mph /  6.4km/h 5.2mph /  8.4km/h 91.9% 0in /  0.0mm
09:49 74.1 °F /  23.4 °C 71.2 °F /  21.8 °C 30in /  1015.3hPa NE 3.7mph /  6km/h 5.8mph /  9.3km/h 91% 0in /  0.0mm
09:54 74.1 °F /  23.4 °C 71.2 °F /  21.8 °C 30in /  1015.5hPa NE 3.1mph /  5km/h 5.8mph /  9.3km/h 91% 0in /  0.0mm
09:59 74.3 °F /  23.5 °C 71.4 °F /  21.9 °C 30in /  1015.5hPa NE 3.1mph /  5km/h 4.7mph /  7.6km/h 90.6% 0in /  0.0mm
10:04 74.5 °F /  23.6 °C 71.4 °F /  21.9 °C 30in /  1015.5hPa NNE 3.1mph /  5km/h 5.8mph /  9.3km/h 90% 0in /  0.0mm
10:09 74.8 °F /  23.8 °C 71.6 °F /  22 °C 30in /  1015.7hPa NNE 3mph /  4.9km/h 3.6mph /  5.8km/h 90% 0in /  0.0mm
10:14 75.2 °F /  24 °C 71.8 °F /  22.1 °C 30in /  1015.7hPa NNO 2.9mph /  4.7km/h 4.6mph /  7.4km/h 89.3% 0in /  0.0mm
10:19 75.6 °F /  24.2 °C 71.6 °F /  22 °C 30in /  1015.7hPa North 2.6mph /  4.2km/h 4.6mph /  7.4km/h 87.8% 0in /  0.0mm
10:24 75.9 °F /  24.4 °C 71.4 °F /  21.9 °C 30in /  1015.9hPa North 2mph /  3.2km/h 4mph /  6.4km/h 86.1% 0in /  0.0mm
10:29 75.9 °F /  24.4 °C 70.7 °F /  21.5 °C 30in /  1015.9hPa Oeste 2mph /  3.2km/h 4.6mph /  7.4km/h 83.5% 0in /  0.0mm
10:34 76.5 °F /  24.7 °C 70.7 °F /  21.5 °C 30in /  1015.9hPa ONO 2mph /  3.2km/h 5.8mph /  9.3km/h 82.6% 0in /  0.0mm
10:39 76.8 °F /  24.9 °C 70.7 °F /  21.5 °C 30in /  1016.1hPa ONO 2mph /  3.2km/h 4.6mph /  7.4km/h 81.7% 0in /  0.0mm
10:44 77.2 °F /  25.1 °C 70.5 °F /  21.4 °C 30in /  1016.1hPa NE 2mph /  3.2km/h 6.2mph /  10km/h 80.1% 0in /  0.0mm
10:49 77.5 °F /  25.3 °C 70 °F /  21.1 °C 30in /  1016.1hPa SE 2.1mph /  3.4km/h 4.6mph /  7.4km/h 77.7% 0in /  0.0mm
10:54 77.9 °F /  25.5 °C 70.2 °F /  21.2 °C 30in /  1016.1hPa Este 2.4mph /  3.9km/h 5.9mph /  9.5km/h 77.3% 0in /  0.0mm
10:59 78.4 °F /  25.8 °C 70.9 °F /  21.6 °C 30in /  1016.0hPa NE 2.4mph /  3.9km/h 6.4mph /  10.3km/h 77.9% 0in /  0.0mm
11:04 78.4 °F /  25.8 °C 70.7 °F /  21.5 °C 30in /  1016.0hPa NE 2.4mph /  3.9km/h 6.9mph /  11.1km/h 77% 0in /  0.0mm
11:09 78.4 °F /  25.8 °C 70.7 °F /  21.5 °C 30in /  1016.0hPa NNE 2.9mph /  4.7km/h 6.2mph /  10km/h 77% 0in /  0.0mm
11:14 79 °F /  26.1 °C 70.9 °F /  21.6 °C 30in /  1015.9hPa NE 4mph /  6.4km/h 9.2mph /  14.8km/h 76.3% 0in /  0.0mm
11:19 79.2 °F /  26.2 °C 70.9 °F /  21.6 °C 30in /  1015.9hPa ENE 4mph /  6.4km/h 6.9mph /  11.1km/h 76% 0in /  0.0mm
11:24 79.3 °F /  26.3 °C 70.5 °F /  21.4 °C 30in /  1016.0hPa SE 4mph /  6.4km/h 4.6mph /  7.4km/h 74.5% 0in /  0.0mm
11:29 79.5 °F /  26.4 °C 69.8 °F /  21 °C 30in /  1016.0hPa SE 3.7mph /  6km/h 8.1mph /  13km/h 72% 0in /  0.0mm
11:34 79.7 °F /  26.5 °C 69.6 °F /  20.9 °C 30in /  1016.0hPa NE 2.9mph /  4.7km/h 8.1mph /  13km/h 71.2% 0in /  0.0mm
11:39 79.5 °F /  26.4 °C 69.6 °F /  20.9 °C 30in /  1016.0hPa NNE 3.5mph /  5.6km/h 6.9mph /  11.1km/h 71.6% 0in /  0.0mm
11:44 80.1 °F /  26.7 °C 70.2 °F /  21.2 °C 30in /  1016.0hPa NE 4.7mph /  7.6km/h 6.9mph /  11.1km/h 71.9% 0in /  0.0mm
11:49 80.4 °F /  26.9 °C 70.5 °F /  21.4 °C 30in /  1016.0hPa NE 4.1mph /  6.6km/h 5.8mph /  9.3km/h 72% 0in /  0.0mm
11:54 80.6 °F /  27 °C 70.7 °F /  21.5 °C 30in /  1016.0hPa NNE 2.9mph /  4.7km/h 5.9mph /  9.5km/h 72% 0in /  0.0mm
11:59 80.4 °F /  26.9 °C 70.3 °F /  21.3 °C 30in /  1016.0hPa NNE 3.3mph /  5.3km/h 9.2mph /  14.8km/h 71.3% 0in /  0.0mm
12:04 80.8 °F /  27.1 °C 70.3 °F /  21.3 °C 30in /  1016.0hPa Este 4mph /  6.4km/h 6.9mph /  11.1km/h 70.8% 0in /  0.0mm
12:09 80.8 °F /  27.1 °C 70.2 °F /  21.2 °C 30in /  1016.0hPa SE 3.9mph /  6.2km/h 6.2mph /  10km/h 70% 0in /  0.0mm
12:14 80.8 °F /  27.1 °C 70 °F /  21.1 °C 30in /  1015.9hPa ESE 3.6mph /  5.8km/h 8.1mph /  13km/h 70% 0in /  0.0mm
12:19 80.8 °F /  27.1 °C 70.2 °F /  21.2 °C 30in /  1015.9hPa SSE 3.4mph /  5.5km/h 3.6mph /  5.8km/h 70.3% 0in /  0.0mm
12:24 81 °F /  27.2 °C 70.3 °F /  21.3 °C 30in /  1016.0hPa Este 3.1mph /  5km/h 6.9mph /  11.1km/h 70.4% 0in /  0.0mm
12:29 81.3 °F /  27.4 °C 70.2 °F /  21.2 °C 30in /  1016.0hPa Este 3.1mph /  5km/h 5.9mph /  9.5km/h 69.1% 0in /  0.0mm
12:34 81.9 °F /  27.7 °C 70.5 °F /  21.4 °C 30in /  1016.0hPa ENE 3.1mph /  5km/h 6.2mph /  10km/h 68.6% 0in /  0.0mm
12:39 82 °F /  27.8 °C 70.3 °F /  21.3 °C 30in /  1016.0hPa Este 3.1mph /  5km/h 8.5mph /  13.7km/h 67.8% 0in /  0.0mm
12:44 82.4 °F /  28 °C 70.5 °F /  21.4 °C 30in /  1015.9hPa Este 3.1mph /  5km/h 9.2mph /  14.8km/h 67.4% 0in /  0.0mm
12:49 82.8 °F /  28.2 °C 70 °F /  21.1 °C 30in /  1015.9hPa SE 3.8mph /  6.1km/h 9.7mph /  15.6km/h 65.8% 0in /  0.0mm
12:54 82.8 °F /  28.2 °C 69.8 °F /  21 °C 30in /  1015.9hPa Este 5.2mph /  8.4km/h 10mph /  16.1km/h 65.2% 0in /  0.0mm
12:59 82.6 °F /  28.1 °C 69.4 °F /  20.8 °C 30in /  1015.9hPa ESE 5.3mph /  8.5km/h 10.4mph /  16.7km/h 64.8% 0in /  0.0mm
13:04 82.4 °F /  28 °C 69.6 °F /  20.9 °C 30in /  1015.9hPa Este 5.4mph /  8.7km/h 11.8mph /  19km/h 65.4% 0in /  0.0mm
13:09 82.6 °F /  28.1 °C 69.6 °F /  20.9 °C 30in /  1015.9hPa ENE 5mph /  8.1km/h 9.2mph /  14.8km/h 65% 0in /  0.0mm
13:14 82.6 °F /  28.1 °C 69.4 °F /  20.8 °C 30in /  1015.8hPa ENE 4.3mph /  6.9km/h 8.1mph /  13km/h 64.4% 0in /  0.0mm
13:19 82.8 °F /  28.2 °C 69.6 °F /  20.9 °C 30in /  1015.8hPa Este 4.4mph /  7.1km/h 11.8mph /  19km/h 64.8% 0in /  0.0mm
13:24 82.8 °F /  28.2 °C 69.3 °F /  20.7 °C 30in /  1015.8hPa SE 4.7mph /  7.6km/h 13mph /  20.9km/h 64.1% 0in /  0.0mm
13:29 82.8 °F /  28.2 °C 69.4 °F /  20.8 °C 30in /  1015.7hPa SE 5.5mph /  8.9km/h 11.5mph /  18.5km/h 64.5% 0in /  0.0mm
13:34 82.9 °F /  28.3 °C 69.4 °F /  20.8 °C 30in /  1015.7hPa ESE 7.4mph /  11.9km/h 13mph /  20.9km/h 64.1% 0in /  0.0mm
13:39 82.9 °F /  28.3 °C 69.4 °F /  20.8 °C 30in /  1015.7hPa SE 7mph /  11.3km/h 8.1mph /  13km/h 64% 0in /  0.0mm
13:44 83.3 °F /  28.5 °C 70 °F /  21.1 °C 30in /  1015.6hPa ESE 6.2mph /  10km/h 11.8mph /  19km/h 64.4% 0in /  0.0mm
13:49 83.7 °F /  28.7 °C 70.2 °F /  21.2 °C 30in /  1015.6hPa ESE 6.1mph /  9.8km/h 10.4mph /  16.7km/h 64% 0in /  0.0mm
13:54 84 °F /  28.9 °C 69.8 °F /  21 °C 30in /  1015.6hPa ESE 5.9mph /  9.5km/h 12.7mph /  20.4km/h 62.4% 0in /  0.0mm
13:59 84 °F /  28.9 °C 70 °F /  21.1 °C 30in /  1015.4hPa ENE 6mph /  9.7km/h 11.5mph /  18.5km/h 63% 0in /  0.0mm
14:04 84.6 °F /  29.2 °C 70.2 °F /  21.2 °C 30in /  1015.4hPa ESE 6.2mph /  10km/h 13.8mph /  22.2km/h 62.3% 0in /  0.0mm
14:09 84.6 °F /  29.2 °C 69.8 °F /  21 °C 30in /  1015.4hPa Este 6.4mph /  10.3km/h 14mph /  22.5km/h 61.4% 0in /  0.0mm
14:14 84.6 °F /  29.2 °C 69.6 °F /  20.9 °C 30in /  1015.1hPa Este 6.9mph /  11.1km/h 14mph /  22.5km/h 61% 0in /  0.0mm
14:19 84.7 °F /  29.3 °C 69.4 °F /  20.8 °C 30in /  1015.1hPa SE 7.1mph /  11.4km/h 13.8mph /  22.2km/h 60.1% 0in /  0.0mm
14:24 84.6 °F /  29.2 °C 69.1 °F /  20.6 °C 30in /  1015.1hPa SE 7.4mph /  11.9km/h 13mph /  20.9km/h 60% 0in /  0.0mm
14:29 84.7 °F /  29.3 °C 69.3 °F /  20.7 °C 30in /  1014.9hPa ESE 7.4mph /  11.9km/h 10.7mph /  17.2km/h 60% 0in /  0.0mm
14:34 84.7 °F /  29.3 °C 69.1 °F /  20.6 °C 30in /  1014.9hPa SE 7.4mph /  11.9km/h 10.7mph /  17.2km/h 59.6% 0in /  0.0mm
14:39 84.7 °F /  29.3 °C 68.9 °F /  20.5 °C 30in /  1014.9hPa SE 7.1mph /  11.4km/h 11.5mph /  18.5km/h 59.1% 0in /  0.0mm
14:44 84.9 °F /  29.4 °C 68.4 °F /  20.2 °C 30in /  1014.6hPa SSE 6.4mph /  10.3km/h 10.4mph /  16.7km/h 57.8% 0in /  0.0mm
14:49 85.1 °F /  29.5 °C 68 °F /  20 °C 30in /  1014.6hPa SSO 6mph /  9.6km/h 9.2mph /  14.8km/h 56.9% 0in /  0.0mm
14:54 85.3 °F /  29.6 °C 68.2 °F /  20.1 °C 30in /  1014.6hPa ONO 5.2mph /  8.4km/h 5.9mph /  9.5km/h 56.7% 0in /  0.0mm
14:59 85.5 °F /  29.7 °C 68 °F /  20 °C 30in /  1014.3hPa ESE 4.2mph /  6.7km/h 5.8mph /  9.3km/h 56% 0in /  0.0mm
15:04 85.8 °F /  29.9 °C 68 °F /  20 °C 30in /  1014.3hPa SO 2.4mph /  3.9km/h 6.9mph /  11.1km/h 55.7% 0in /  0.0mm
15:09 86 °F /  30 °C 67.5 °F /  19.7 °C 30in /  1014.3hPa Oeste 2.6mph /  4.2km/h 6.9mph /  11.1km/h 54% 0in /  0.0mm
15:14 86.2 °F /  30.1 °C 68 °F /  20 °C 29.9in /  1013.9hPa NNE 3.1mph /  5km/h 5.8mph /  9.3km/h 54.7% 0in /  0.0mm
15:19 86.4 °F /  30.2 °C 67.8 °F /  19.9 °C 29.9in /  1013.9hPa North 3mph /  4.9km/h 4.6mph /  7.4km/h 54.1% 0in /  0.0mm
15:24 86.5 °F /  30.3 °C 67.8 °F /  19.9 °C 29.9in /  1013.9hPa NNE 2.9mph /  4.7km/h 8.1mph /  13km/h 54% 0in /  0.0mm
15:29 86.4 °F /  30.2 °C 68 °F /  20 °C 29.9in /  1013.8hPa NE 3.1mph /  5km/h 6.2mph /  10km/h 54.4% 0in /  0.0mm
15:34 86.5 °F /  30.3 °C 68 °F /  20 °C 29.9in /  1013.8hPa ENE 3.6mph /  5.8km/h 8.5mph /  13.7km/h 54.2% 0in /  0.0mm
15:39 86.5 °F /  30.3 °C 67.8 °F /  19.9 °C 29.9in /  1013.8hPa ESE 3.6mph /  5.8km/h 5.8mph /  9.3km/h 54% 0in /  0.0mm
15:44 86.7 °F /  30.4 °C 67.6 °F /  19.8 °C 29.9in /  1013.7hPa NE 3.6mph /  5.8km/h 9.7mph /  15.6km/h 53.2% 0in /  0.0mm
15:49 86.5 °F /  30.3 °C 67.3 °F /  19.6 °C 29.9in /  1013.7hPa NE 3.9mph /  6.3km/h 8.5mph /  13.7km/h 52.5% 0in /  0.0mm
15:54 86.7 °F /  30.4 °C 67.5 °F /  19.7 °C 29.9in /  1013.7hPa NNE 4.7mph /  7.6km/h 9.2mph /  14.8km/h 53% 0in /  0.0mm
15:59 86.7 °F /  30.4 °C 67.3 °F /  19.6 °C 29.9in /  1013.6hPa ENE 4.8mph /  7.8km/h 9.2mph /  14.8km/h 52.4% 0in /  0.0mm
16:04 86.5 °F /  30.3 °C 67.1 °F /  19.5 °C 29.9in /  1013.6hPa Este 5.2mph /  8.4km/h 9.2mph /  14.8km/h 52.8% 0in /  0.0mm
16:09 86.4 °F /  30.2 °C 67.3 °F /  19.6 °C 29.9in /  1013.6hPa ENE 4.9mph /  7.9km/h 8.1mph /  13km/h 53% 0in /  0.0mm
16:14 86.5 °F /  30.3 °C 67.5 °F /  19.7 °C 29.9in /  1013.6hPa ENE 4.3mph /  6.9km/h 8.1mph /  13km/h 53% 0in /  0.0mm
16:19 86.5 °F /  30.3 °C 67.6 °F /  19.8 °C 29.9in /  1013.6hPa NE 4.3mph /  6.9km/h 9.2mph /  14.8km/h 53.6% 0in /  0.0mm
16:24 86.5 °F /  30.3 °C 67.8 °F /  19.9 °C 29.9in /  1013.6hPa NE 4.3mph /  6.9km/h 9.7mph /  15.6km/h 53.7% 0in /  0.0mm
16:29 86.5 °F /  30.3 °C 68.5 °F /  20.3 °C 29.9in /  1013.5hPa NE 4.8mph /  7.7km/h 9.7mph /  15.6km/h 55.1% 0in /  0.0mm
16:34 86.5 °F /  30.3 °C 68.5 °F /  20.3 °C 29.9in /  1013.5hPa NE 5.9mph /  9.5km/h 8.1mph /  13km/h 55.2% 0in /  0.0mm
16:39 86.5 °F /  30.3 °C 68.9 °F /  20.5 °C 29.9in /  1013.5hPa NE 5.7mph /  9.1km/h 10.7mph /  17.2km/h 55.9% 0in /  0.0mm
16:44 86.5 °F /  30.3 °C 70 °F /  21.1 °C 29.9in /  1013.5hPa ESE 5.2mph /  8.4km/h 13.8mph /  22.2km/h 58.1% 0in /  0.0mm
16:49 86.2 °F /  30.1 °C 70.7 °F /  21.5 °C 29.9in /  1013.5hPa ESE 6.3mph /  10.1km/h 16.1mph /  25.9km/h 59.8% 0in /  0.0mm
16:54 86 °F /  30 °C 70.9 °F /  21.6 °C 29.9in /  1013.5hPa ESE 8.5mph /  13.7km/h 17.5mph /  28.2km/h 60.8% 0in /  0.0mm
16:59 85.6 °F /  29.8 °C 70.9 °F /  21.6 °C 29.9in /  1013.5hPa ESE 9.4mph /  15.2km/h 18.4mph /  29.6km/h 61.4% 0in /  0.0mm
17:04 85.5 °F /  29.7 °C 71.1 °F /  21.7 °C 29.9in /  1013.5hPa ESE 11.2mph /  18km/h 18.4mph /  29.6km/h 62% 0in /  0.0mm
17:09 85.5 °F /  29.7 °C 70.9 °F /  21.6 °C 29.9in /  1013.5hPa ESE 10.7mph /  17.3km/h 19.2mph /  30.9km/h 62% 0in /  0.0mm
17:14 84.9 °F /  29.4 °C 70.7 °F /  21.5 °C 29.9in /  1013.4hPa SE 9.7mph /  15.6km/h 23mph /  37km/h 62.6% 0in /  0.0mm
17:19 84.6 °F /  29.2 °C 70.5 °F /  21.4 °C 29.9in /  1013.4hPa SE 10.6mph /  17km/h 19.7mph /  31.7km/h 63% 0in /  0.0mm
17:24 84.6 °F /  29.2 °C 70.9 °F /  21.6 °C 29.9in /  1013.4hPa ESE 12.3mph /  19.8km/h 17.3mph /  27.8km/h 63.8% 0in /  0.0mm
17:29 84.4 °F /  29.1 °C 70.9 °F /  21.6 °C 29.9in /  1013.4hPa SE 12mph /  19.3km/h 24.2mph /  38.9km/h 64% 0in /  0.0mm
17:34 84 °F /  28.9 °C 70.5 °F /  21.4 °C 29.9in /  1013.4hPa ESE 11.2mph /  18km/h 18.5mph /  29.8km/h 64.2% 0in /  0.0mm
17:39 83.8 °F /  28.8 °C 70.5 °F /  21.4 °C 29.9in /  1013.4hPa ESE 11.2mph /  18.1km/h 20.4mph /  32.8km/h 64.5% 0in /  0.0mm
17:44 83.5 °F /  28.6 °C 70.7 °F /  21.5 °C 29.9in /  1013.4hPa ESE 11.4mph /  18.3km/h 20.7mph /  33.3km/h 65.7% 0in /  0.0mm
17:49 83.3 °F /  28.5 °C 70.9 °F /  21.6 °C 29.9in /  1013.4hPa ESE 11.9mph /  19.2km/h 20.7mph /  33.3km/h 66% 0in /  0.0mm
17:54 82.9 °F /  28.3 °C 70.7 °F /  21.5 °C 29.9in /  1013.5hPa SE 13mph /  20.9km/h 18.4mph /  29.6km/h 66.3% 0in /  0.0mm
17:59 82.9 °F /  28.3 °C 70.7 °F /  21.5 °C 29.9in /  1013.5hPa ESE 12.8mph /  20.6km/h 20.7mph /  33.3km/h 66.6% 0in /  0.0mm
18:04 82.8 °F /  28.2 °C 70.7 °F /  21.5 °C 29.9in /  1013.5hPa ESE 12.5mph /  20.1km/h 16.3mph /  26.2km/h 67% 0in /  0.0mm
18:09 82.6 °F /  28.1 °C 70.5 °F /  21.4 °C 29.9in /  1013.7hPa ESE 12.1mph /  19.4km/h 18.4mph /  29.6km/h 67.2% 0in /  0.0mm
18:14 82.2 °F /  27.9 °C 70.5 °F /  21.4 °C 29.9in /  1013.7hPa ESE 11.2mph /  18km/h 17mph /  27.4km/h 68% 0in /  0.0mm
18:19 82 °F /  27.8 °C 70.9 °F /  21.6 °C 29.9in /  1013.7hPa ESE 11.2mph /  18km/h 18.4mph /  29.6km/h 68.9% 0in /  0.0mm
18:24 82 °F /  27.8 °C 70.5 °F /  21.4 °C 29.9in /  1013.7hPa ESE 11.2mph /  18km/h 18.4mph /  29.6km/h 68.3% 0in /  0.0mm
18:29 82 °F /  27.8 °C 70.2 °F /  21.2 °C 29.9in /  1013.5hPa SE 11.1mph /  17.8km/h 16.1mph /  25.9km/h 67.4% 0in /  0.0mm
18:34 82 °F /  27.8 °C 70 °F /  21.1 °C 29.9in /  1013.5hPa SE 10.7mph /  17.2km/h 17.3mph /  27.8km/h 67% 0in /  0.0mm
18:39 81.9 °F /  27.7 °C 69.8 °F /  21 °C 29.9in /  1013.6hPa SE 10.5mph /  16.9km/h 16.1mph /  25.9km/h 67.2% 0in /  0.0mm
18:44 81.9 °F /  27.7 °C 70.3 °F /  21.3 °C 29.9in /  1013.6hPa SE 10.2mph /  16.4km/h 13mph /  20.9km/h 68% 0in /  0.0mm
18:49 81.9 °F /  27.7 °C 70.3 °F /  21.3 °C 29.9in /  1013.6hPa SE 9.5mph /  15.3km/h 15.9mph /  25.6km/h 68% 0in /  0.0mm
18:54 81.9 °F /  27.7 °C 70.2 °F /  21.2 °C 29.9in /  1013.6hPa SE 8.1mph /  13km/h 17.5mph /  28.2km/h 68% 0in /  0.0mm
18:59 81.3 °F /  27.4 °C 70 °F /  21.1 °C 29.9in /  1013.6hPa SE 9.1mph /  14.6km/h 17.3mph /  27.8km/h 68.8% 0in /  0.0mm
19:04 81.1 °F /  27.3 °C 70.2 °F /  21.2 °C 29.9in /  1013.6hPa SE 10.7mph /  17.2km/h 16.1mph /  25.9km/h 69.4% 0in /  0.0mm
19:09 81 °F /  27.2 °C 70.3 °F /  21.3 °C 29.9in /  1013.6hPa SE 10.1mph /  16.2km/h 13.8mph /  22.2km/h 70% 0in /  0.0mm
19:14 81 °F /  27.2 °C 70.3 °F /  21.3 °C 29.9in /  1013.6hPa SE 8.7mph /  14km/h 11.5mph /  18.5km/h 70% 0in /  0.0mm
19:19 81 °F /  27.2 °C 70.3 °F /  21.3 °C 29.9in /  1013.6hPa SE 7.8mph /  12.6km/h 10.4mph /  16.7km/h 70% 0in /  0.0mm
19:24 81 °F /  27.2 °C 70 °F /  21.1 °C 29.9in /  1013.9hPa Sur 5.9mph /  9.5km/h 13mph /  20.9km/h 69.3% 0in /  0.0mm
19:29 80.8 °F /  27.1 °C 69.3 °F /  20.7 °C 29.9in /  1013.9hPa SSE 6.2mph /  10km/h 17.3mph /  27.8km/h 68.1% 0in /  0.0mm
19:34 80.4 °F /  26.9 °C 68.9 °F /  20.5 °C 29.9in /  1013.9hPa SE 6.9mph /  11.1km/h 12.7mph /  20.4km/h 68% 0in /  0.0mm
19:39 80.4 °F /  26.9 °C 68.9 °F /  20.5 °C 29.9in /  1014.1hPa SE 6.6mph /  10.6km/h 9.2mph /  14.8km/h 68.2% 0in /  0.0mm
19:44 80.2 °F /  26.8 °C 69.1 °F /  20.6 °C 29.9in /  1014.1hPa SE 5.9mph /  9.5km/h 15.2mph /  24.5km/h 69% 0in /  0.0mm
19:49 80.1 °F /  26.7 °C 69.3 °F /  20.7 °C 29.9in /  1014.1hPa SSE 6.2mph /  10km/h 15mph /  24.1km/h 69.7% 0in /  0.0mm
19:54 79.7 °F /  26.5 °C 69.1 °F /  20.6 °C 30in /  1014.3hPa SSE 6.9mph /  11.1km/h 10mph /  16.1km/h 70% 0in /  0.0mm
19:59 79.3 °F /  26.3 °C 68.9 °F /  20.5 °C 30in /  1014.3hPa Sur 6.6mph /  10.7km/h 10.4mph /  16.7km/h 70% 0in /  0.0mm
20:04 79.3 °F /  26.3 °C 69.1 °F /  20.6 °C 30in /  1014.3hPa Sur 6.2mph /  10km/h 6.9mph /  11.1km/h 70.8% 0in /  0.0mm
20:09 79.3 °F /  26.3 °C 69.1 °F /  20.6 °C 30in /  1014.7hPa Sur 5.5mph /  8.8km/h 9.7mph /  15.6km/h 71% 0in /  0.0mm
20:14 79.2 °F /  26.2 °C 68.9 °F /  20.5 °C 30in /  1014.7hPa SSE 4mph /  6.4km/h 9.2mph /  14.8km/h 71% 0in /  0.0mm
20:19 79 °F /  26.1 °C 69.1 °F /  20.6 °C 30in /  1014.7hPa SE 4.2mph /  6.8km/h 8.1mph /  13km/h 71.6% 0in /  0.0mm
20:24 79 °F /  26.1 °C 69.3 °F /  20.7 °C 30in /  1014.7hPa SSE 4.7mph /  7.6km/h 10.4mph /  16.7km/h 72% 0in /  0.0mm
20:29 78.8 °F /  26 °C 69.1 °F /  20.6 °C 30in /  1014.6hPa SE 4.8mph /  7.8km/h 8.1mph /  13km/h 72% 0in /  0.0mm
20:34 78.6 °F /  25.9 °C 68.9 °F /  20.5 °C 30in /  1014.6hPa SSE 5.2mph /  8.4km/h 8.5mph /  13.7km/h 72.1% 0in /  0.0mm
20:39 78.4 °F /  25.8 °C 69.1 °F /  20.6 °C 30in /  1014.6hPa SSE 5.2mph /  8.4km/h 8.5mph /  13.7km/h 73% 0in /  0.0mm
20:44 78.4 °F /  25.8 °C 69.1 °F /  20.6 °C 30in /  1014.5hPa SE 5.2mph /  8.4km/h 6.2mph /  10km/h 73% 0in /  0.0mm
20:49 78.4 °F /  25.8 °C 69.1 °F /  20.6 °C 30in /  1014.5hPa SSE 4.7mph /  7.6km/h 5.2mph /  8.4km/h 73% 0in /  0.0mm
20:54 78.4 °F /  25.8 °C 69.1 °F /  20.6 °C 30in /  1014.5hPa SSE 3.6mph /  5.8km/h 4.6mph /  7.4km/h 73% 0in /  0.0mm
20:59 78.4 °F /  25.8 °C 69.1 °F /  20.6 °C 30in /  1014.4hPa SE 3mph /  4.9km/h 4.7mph /  7.6km/h 73% 0in /  0.0mm
21:04 78.4 °F /  25.8 °C 69.1 °F /  20.6 °C 30in /  1014.4hPa NNE 2mph /  3.2km/h 4.6mph /  7.4km/h 73% 0in /  0.0mm
21:09 78.3 °F /  25.7 °C 69.3 °F /  20.7 °C 30in /  1014.5hPa NE 2.1mph /  3.4km/h 4.7mph /  7.6km/h 73.9% 0in /  0.0mm
21:14 78.1 °F /  25.6 °C 69.1 °F /  20.6 °C 30in /  1014.5hPa NE 2.4mph /  3.9km/h 4.6mph /  7.4km/h 74% 0in /  0.0mm
21:19 78.1 °F /  25.6 °C 69.3 °F /  20.7 °C 30in /  1014.5hPa ENE 2.5mph /  4.1km/h 4.6mph /  7.4km/h 74.4% 0in /  0.0mm
21:24 77.7 °F /  25.4 °C 69.3 °F /  20.7 °C 30in /  1014.7hPa NE 2.9mph /  4.7km/h 5.2mph /  8.4km/h 75% 0in /  0.0mm
21:29 77.5 °F /  25.3 °C 69.1 °F /  20.6 °C 30in /  1014.7hPa NE 3.2mph /  5.2km/h 6.2mph /  10km/h 75% 0in /  0.0mm
21:34 77.5 °F /  25.3 °C 69.3 °F /  20.7 °C 30in /  1014.7hPa NE 4mph /  6.4km/h 6.4mph /  10.3km/h 75.8% 0in /  0.0mm
21:39 77.4 °F /  25.2 °C 69.3 °F /  20.7 °C 30in /  1015.0hPa NE 4.2mph /  6.8km/h 6.9mph /  11.1km/h 76% 0in /  0.0mm
21:44 77.2 °F /  25.1 °C 69.1 °F /  20.6 °C 30in /  1015.0hPa ENE 4.7mph /  7.6km/h 5.8mph /  9.3km/h 76.2% 0in /  0.0mm
21:49 77.2 °F /  25.1 °C 69.4 °F /  20.8 °C 30in /  1015.0hPa ENE 4.2mph /  6.8km/h 5.8mph /  9.3km/h 77% 0in /  0.0mm
21:54 77.2 °F /  25.1 °C 69.3 °F /  20.7 °C 30in /  1015.4hPa ENE 3.1mph /  5km/h 4.6mph /  7.4km/h 77% 0in /  0.0mm
21:59 77 °F /  25 °C 69.1 °F /  20.6 °C 30in /  1015.4hPa ENE 3mph /  4.9km/h 4.6mph /  7.4km/h 77% 0in /  0.0mm
22:04 76.8 °F /  24.9 °C 69.1 °F /  20.6 °C 30in /  1015.4hPa ENE 2.9mph /  4.7km/h 3.6mph /  5.8km/h 77.1% 0in /  0.0mm
22:09 76.8 °F /  24.9 °C 69.4 °F /  20.8 °C 30in /  1015.9hPa Este 2.6mph /  4.2km/h 5.4mph /  8.7km/h 78% 0in /  0.0mm
22:14 76.8 °F /  24.9 °C 69.4 °F /  20.8 °C 30in /  1015.9hPa ESE 2mph /  3.2km/h 5.9mph /  9.5km/h 78% 0in /  0.0mm
22:19 76.8 °F /  24.9 °C 69.4 °F /  20.8 °C 30in /  1015.9hPa ESE 2.4mph /  3.8km/h 5.8mph /  9.3km/h 78% 0in /  0.0mm
22:24 76.8 °F /  24.9 °C 69.4 °F /  20.8 °C 30in /  1016.2hPa Este 3.1mph /  5km/h 6.9mph /  11.1km/h 78% 0in /  0.0mm
22:29 76.6 °F /  24.8 °C 69.3 °F /  20.7 °C 30in /  1016.2hPa ESE 3.2mph /  5.2km/h 6.9mph /  11.1km/h 78% 0in /  0.0mm
22:34 76.6 °F /  24.8 °C 69.4 °F /  20.8 °C 30in /  1016.2hPa ESE 3.6mph /  5.8km/h 6.2mph /  10km/h 78.8% 0in /  0.0mm
22:39 76.5 °F /  24.7 °C 69.4 °F /  20.8 °C 30in /  1016.5hPa SE 3.7mph /  6km/h 6.2mph /  10km/h 79% 0in /  0.0mm
22:44 76.5 °F /  24.7 °C 69.4 °F /  20.8 °C 30in /  1016.5hPa SE 4mph /  6.4km/h 6.2mph /  10km/h 79% 0in /  0.0mm
22:49 76.5 °F /  24.7 °C 69.4 °F /  20.8 °C 30in /  1016.5hPa ESE 3.9mph /  6.2km/h 4.7mph /  7.6km/h 79% 0in /  0.0mm
22:54 76.5 °F /  24.7 °C 69.4 °F /  20.8 °C 30in /  1016.8hPa ESE 3.6mph /  5.8km/h 5.2mph /  8.4km/h 79% 0in /  0.0mm
22:59 76.5 °F /  24.7 °C 69.4 °F /  20.8 °C 30in /  1016.8hPa SE 3.4mph /  5.4km/h 4.7mph /  7.6km/h 79% 0in /  0.0mm
23:04 76.5 °F /  24.7 °C 69.4 °F /  20.8 °C 30in /  1016.8hPa ESE 2.9mph /  4.7km/h 5.8mph /  9.3km/h 79% 0in /  0.0mm
23:09 76.5 °F /  24.7 °C 69.4 °F /  20.8 °C 30in /  1017.0hPa Este 3mph /  4.8km/h 5.4mph /  8.7km/h 79% 0in /  0.0mm
23:14 76.3 °F /  24.6 °C 69.6 °F /  20.9 °C 30in /  1017.0hPa Este 3.1mph /  5km/h 6.2mph /  10km/h 79.9% 0in /  0.0mm
23:19 76.1 °F /  24.5 °C 69.6 °F /  20.9 °C 30in /  1017.0hPa ESE 3.4mph /  5.5km/h 5.9mph /  9.5km/h 80% 0in /  0.0mm
23:24 75.9 °F /  24.4 °C 69.4 °F /  20.8 °C 30in /  1017.0hPa ESE 4mph /  6.4km/h 8.1mph /  13km/h 80.3% 0in /  0.0mm
23:25 75.9 °F /  24.4 °C 69.3 °F /  20.7 °C 30in /  1016.9hPa ESE 4mph /  6.4km/h 5.9mph /  9.5km/h 80% 0in /  0.0mm
23:30 75.9 °F /  24.4 °C 69.6 °F /  20.9 °C 30in /  1016.9hPa SSE 4.7mph /  7.6km/h 5.8mph /  9.3km/h 81% 0in /  0.0mm
Murcia-Puente Tocinos, España
Compliments of Weather Underground - 3.5 mb

La estación de MeteoMurcia.com, publica sus datos en los siguientes proyectos:

Weather Underground PWS IMURCIAP2 Meteoclimatic www.awekas.at

W3Counter
Web Analytics